Time;durP1;ratioP1;P1;durP2;ratioP2;P2;SDS_P1;SDS_P2;PMS_P1;PMS_P2;Temp;Humidity;BMP_temperature;BMP_pressure;BME280_temperature;BME280_humidity;BME280_pressure;Samples;Min_cycle;Max_cycle;Signal;HPM_P1;HPM_P2
2022/12/13 00:00:53;;;;;;;12.43;5.30;;;-0.80;92.90;;;;;;4999046;28;20034;-85
2022/12/13 00:03:19;;;;;;;12.80;5.70;;;-0.80;92.80;;;;;;4990894;28;20037;-85
2022/12/13 00:05:45;;;;;;;10.48;5.10;;;-0.80;92.80;;;;;;4969824;28;20284;-85
2022/12/13 00:08:10;;;;;;;10.97;5.70;;;-0.80;92.70;;;;;;5007199;28;20045;-85
2022/12/13 00:10:36;;;;;;;12.00;5.50;;;-0.80;92.70;;;;;;5005314;28;21206;-85
2022/12/13 00:13:03;;;;;;;12.87;5.60;;;-0.70;92.70;;;;;;4981032;28;20025;-85
2022/12/13 00:15:29;;;;;;;12.70;5.75;;;-0.80;92.70;;;;;;4983150;28;20040;-85
2022/12/13 00:17:54;;;;;;;11.35;4.93;;;-0.80;92.70;;;;;;5003177;28;20608;-85
2022/12/13 00:20:20;;;;;;;11.23;5.33;;;-0.80;92.70;;;;;;4975998;28;20028;-85
2022/12/13 00:22:46;;;;;;;10.57;4.87;;;-0.70;92.70;;;;;;4974180;28;20077;-86
2022/12/13 00:25:11;;;;;;;10.95;5.20;;;-0.80;92.70;;;;;;5008643;28;20021;-85
2022/12/13 00:27:37;;;;;;;10.77;5.03;;;-0.70;92.80;;;;;;5021430;28;20029;-85
2022/12/13 00:30:03;;;;;;;10.10;4.60;;;-0.70;92.80;;;;;;4964489;28;20570;-85
2022/12/13 00:32:29;;;;;;;10.25;5.05;;;-0.70;92.90;;;;;;4993499;28;20487;-85
2022/12/13 00:34:55;;;;;;;11.63;5.32;;;-0.70;92.90;;;;;;4974127;28;20033;-85
2022/12/13 00:37:21;;;;;;;10.13;4.77;;;-0.70;92.90;;;;;;4997116;28;20046;-85
2022/12/13 00:39:46;;;;;;;10.20;4.43;;;-0.70;92.90;;;;;;5020245;28;20435;-86
2022/12/13 00:42:12;;;;;;;10.25;4.53;;;-0.70;92.90;;;;;;5012198;28;20161;-86
2022/12/13 00:44:38;;;;;;;9.10;4.27;;;-0.70;92.90;;;;;;4963301;28;21579;-86
2022/12/13 00:47:03;;;;;;;10.18;4.60;;;-0.70;92.90;;;;;;4982262;28;20033;-85
2022/12/13 00:49:29;;;;;;;8.67;4.50;;;-0.70;92.90;;;;;;5021145;28;20574;-85
2022/12/13 00:51:55;;;;;;;10.90;4.68;;;-0.70;92.90;;;;;;4988414;28;20016;-85
2022/12/13 00:54:20;;;;;;;9.27;4.40;;;-0.70;92.90;;;;;;4982280;28;20048;-86
2022/12/13 00:56:46;;;;;;;9.98;4.80;;;-0.70;92.80;;;;;;5005459;28;20575;-86
2022/12/13 00:59:14;;;;;;;9.80;4.80;;;-0.70;92.80;;;;;;4989602;28;20087;-86
2022/12/13 01:01:40;;;;;;;10.95;4.95;;;-0.70;92.80;;;;;;4967934;28;20196;-86
2022/12/13 01:04:06;;;;;;;11.77;4.88;;;-0.70;92.80;;;;;;5011713;28;20072;-86
2022/12/13 01:06:45;;;;;;;9.63;4.75;;;-0.70;92.80;;;;;;4990192;28;20048;-86
2022/12/13 01:09:20;;;;;;;11.50;4.53;;;-0.70;92.90;;;;;;4994938;28;20061;-86
2022/12/13 01:11:46;;;;;;;9.68;4.32;;;-0.70;92.90;;;;;;5010870;28;20059;-86
2022/12/13 01:14:12;;;;;;;10.60;4.18;;;-0.70;92.90;;;;;;5008457;28;20130;-85
2022/12/13 01:16:38;;;;;;;10.40;4.30;;;-0.70;92.90;;;;;;4979571;28;20022;-86
2022/12/13 01:19:03;;;;;;;11.07;5.30;;;-0.70;92.90;;;;;;4985351;28;21433;-86
2022/12/13 01:21:29;;;;;;;10.27;4.50;;;-0.80;92.80;;;;;;4984438;28;20167;-86
2022/12/13 01:24:00;;;;;;;8.57;3.80;;;-0.70;93.10;;;;;;4978387;28;20025;-86
2022/12/13 01:26:26;;;;;;;8.90;4.30;;;-0.70;92.80;;;;;;4996361;28;20602;-86
2022/12/13 01:28:52;;;;;;;9.40;4.10;;;-0.80;92.80;;;;;;5006431;28;20033;-86
2022/12/13 01:31:20;;;;;;;9.90;3.97;;;-0.70;92.80;;;;;;4956851;28;20059;-86
2022/12/13 01:33:47;;;;;;;10.38;4.28;;;-0.80;93.10;;;;;;5019283;28;20650;-86
2022/12/13 01:36:16;;;;;;;9.00;4.30;;;-0.80;92.70;;;;;;4997224;28;20915;-86
2022/12/13 01:38:42;;;;;;;8.50;4.07;;;-0.80;92.70;;;;;;5010901;28;20053;-86
2022/12/13 01:41:12;;;;;;;8.77;4.37;;;-0.80;92.70;;;;;;4979271;28;20319;-86
2022/12/13 01:43:41;;;;;;;10.32;4.90;;;-0.80;92.60;;;;;;5029070;28;20022;-86
2022/12/13 01:46:08;;;;;;;8.23;4.57;;;-0.80;92.60;;;;;;5000509;28;20250;-86
2022/12/13 01:48:38;;;;;;;9.02;4.20;;;-0.80;92.50;;;;;;5013255;28;20020;-86
2022/12/13 01:51:08;;;;;;;10.73;4.20;;;-0.80;92.50;;;;;;4973050;28;20740;-86
2022/12/13 01:53:38;;;;;;;10.17;4.27;;;-0.80;92.50;;;;;;5013866;28;20120;-86
2022/12/13 01:56:09;;;;;;;9.88;4.43;;;-0.80;92.50;;;;;;4996123;28;20576;-86
2022/12/13 01:58:36;;;;;;;11.43;4.82;;;-0.90;92.50;;;;;;5015394;28;20035;-86
2022/12/13 02:01:02;;;;;;;9.18;4.28;;;-0.90;92.40;;;;;;4998205;28;20278;-84
2022/12/13 02:03:28;;;;;;;9.63;4.47;;;-0.90;92.50;;;;;;4987369;28;20025;-83
2022/12/13 02:05:56;;;;;;;12.60;5.17;;;-0.90;92.70;;;;;;5004035;28;20071;-83
2022/12/13 02:08:24;;;;;;;10.60;4.88;;;-0.90;92.80;;;;;;5012188;28;20366;-83
2022/12/13 02:10:50;;;;;;;10.23;4.50;;;-0.90;92.90;;;;;;4981529;28;20029;-83
2022/12/13 02:13:15;;;;;;;10.17;4.60;;;-0.90;92.90;;;;;;5011781;28;20104;-83
2022/12/13 02:16:21;;;;;;;10.50;5.18;;;-0.90;93.30;;;;;;5013849;28;20433;-83
2022/12/13 02:19:18;;;;;;;10.32;5.18;;;-0.90;93.10;;;;;;4984600;28;20048;-83
2022/12/13 02:21:49;;;;;;;7.90;4.43;;;-0.90;93.10;;;;;;4996626;28;20499;-83
2022/12/13 02:24:35;;;;;;;9.70;4.40;;;-0.90;93.10;;;;;;5010848;28;20044;-83
2022/12/13 02:27:38;;;;;;;11.32;4.70;;;-1.00;93.00;;;;;;5013308;28;20413;-83
2022/12/13 02:30:28;;;;;;;8.55;4.03;;;-1.00;93.00;;;;;;4972150;28;20041;-83
2022/12/13 02:33:28;;;;;;;12.52;4.70;;;-1.00;93.00;;;;;;4969634;28;21408;-83
2022/12/13 02:36:07;;;;;;;9.13;4.10;;;-0.90;93.00;;;;;;4980013;28;20032;-83
2022/12/13 02:38:56;;;;;;;8.60;4.20;;;-1.00;92.90;;;;;;4998178;28;20123;-82
2022/12/13 02:41:25;;;;;;;9.35;4.20;;;-1.00;92.80;;;;;;4999150;28;20040;-82
2022/12/13 02:44:16;;;;;;;11.18;4.97;;;-1.00;92.70;;;;;;4984529;28;20061;-83
2022/12/13 02:46:51;;;;;;;10.88;5.93;;;-1.00;92.70;;;;;;5002637;28;20119;-82
2022/12/13 02:49:19;;;;;;;9.30;4.70;;;-1.00;92.80;;;;;;5027983;28;20029;-82
2022/12/13 02:51:45;;;;;;;9.93;4.50;;;-1.10;92.70;;;;;;5018146;28;20195;-82
2022/12/13 02:54:11;;;;;;;11.15;4.47;;;-1.10;92.70;;;;;;4999868;28;20021;-82
2022/12/13 02:56:37;;;;;;;10.63;4.68;;;-1.10;92.70;;;;;;4995596;28;20083;-82
2022/12/13 02:59:11;;;;;;;8.80;4.00;;;-1.10;92.70;;;;;;5000774;28;20021;-82
2022/12/13 03:02:10;;;;;;;11.63;4.47;;;-1.10;92.70;;;;;;5008916;28;20310;-82
2022/12/13 03:07:52;;;;;;;8.93;4.23;;;-1.10;92.70;;;;;;5019167;28;20199;-82
2022/12/13 03:10:28;;;;;;;9.38;4.43;;;-1.10;92.70;;;;;;4986120;28;20021;-82
2022/12/13 03:15:55;;;;;;;8.93;4.18;;;-1.10;92.70;;;;;;5018781;28;20337;-82
2022/12/13 03:18:25;;;;;;;8.52;4.18;;;-1.10;92.70;;;;;;5022990;28;20138;-82
2022/12/13 03:21:00;;;;;;;6.83;3.33;;;-1.20;92.60;;;;;;4984458;28;20542;-82
2022/12/13 03:23:26;;;;;;;8.55;4.05;;;-1.20;92.60;;;;;;4997717;28;20021;-82
2022/12/13 03:25:59;;;;;;;8.63;4.00;;;-1.20;92.60;;;;;;5000802;28;20767;-82
2022/12/13 03:28:25;;;;;;;8.25;3.83;;;-1.20;92.70;;;;;;5009723;28;20496;-82
2022/12/13 03:30:51;;;;;;;7.80;3.97;;;-1.20;92.70;;;;;;4979462;28;20024;-82
2022/12/13 03:33:16;;;;;;;8.75;4.10;;;-1.20;92.60;;;;;;5024718;28;20044;-82
2022/12/13 03:35:43;;;;;;;11.02;4.32;;;-1.20;92.70;;;;;;4977792;28;20041;-82
2022/12/13 03:38:10;;;;;;;9.33;3.70;;;-1.20;92.70;;;;;;5003835;28;20092;-82
2022/12/13 03:40:36;;;;;;;9.02;4.10;;;-1.20;92.70;;;;;;4987630;28;20488;-82
2022/12/13 03:43:02;;;;;;;9.52;4.20;;;-1.20;92.80;;;;;;5015480;28;20022;-82
2022/12/13 03:45:28;;;;;;;10.27;4.65;;;-1.20;92.90;;;;;;4986062;28;20289;-82
2022/12/13 03:47:54;;;;;;;9.23;4.17;;;-1.20;92.90;;;;;;5035194;28;20033;-82
2022/12/13 03:50:19;;;;;;;9.88;4.43;;;-1.20;92.90;;;;;;4981747;28;20056;-82
2022/12/13 03:52:46;;;;;;;8.13;3.83;;;-1.20;92.90;;;;;;5026788;28;20037;-82
2022/12/13 03:55:12;;;;;;;9.18;4.30;;;-1.20;92.80;;;;;;4966865;28;20430;-82
2022/12/13 03:57:38;;;;;;;7.00;3.45;;;-1.20;92.80;;;;;;5008835;28;20075;-81
2022/12/13 04:00:05;;;;;;;7.88;3.55;;;-1.20;92.80;;;;;;5027562;28;20036;-82
2022/12/13 04:02:30;;;;;;;8.60;3.97;;;-1.30;92.80;;;;;;4995564;28;20028;-81
2022/12/13 04:04:56;;;;;;;8.82;4.20;;;-1.30;92.90;;;;;;5000396;28;20548;-82
2022/12/13 04:07:22;;;;;;;10.57;5.10;;;-1.30;92.90;;;;;;4991206;28;20273;-82
2022/12/13 04:09:48;;;;;;;9.43;4.45;;;-1.30;92.90;;;;;;4999580;28;20017;-82
2022/12/13 04:14:57;;;;;;;9.20;4.30;;;-1.30;92.90;;;;;;4994924;28;21319;-82
2022/12/13 04:17:23;;;;;;;9.13;4.50;;;-1.30;92.90;;;;;;4994991;28;20025;-82
2022/12/13 04:19:49;;;;;;;9.63;4.20;;;-1.30;92.90;;;;;;4964948;28;20639;-81
2022/12/13 04:22:15;;;;;;;8.07;3.93;;;-1.30;92.80;;;;;;5026354;28;20076;-82
2022/12/13 04:24:40;;;;;;;9.60;4.32;;;-1.30;92.70;;;;;;5005428;28;20381;-82
2022/12/13 04:27:06;;;;;;;9.43;4.20;;;-1.30;92.70;;;;;;5006624;28;20226;-82
2022/12/13 04:29:32;;;;;;;9.80;4.00;;;-1.30;92.60;;;;;;5027035;28;20504;-82
2022/12/13 04:31:57;;;;;;;8.65;3.85;;;-1.30;92.60;;;;;;5006033;28;20119;-82
2022/12/13 04:34:23;;;;;;;7.60;3.80;;;-1.30;92.60;;;;;;5001329;28;20116;-82
2022/12/13 04:36:49;;;;;;;8.13;3.80;;;-1.30;92.50;;;;;;4974766;28;20092;-82
2022/12/13 04:39:14;;;;;;;10.00;4.37;;;-1.30;92.50;;;;;;5010952;28;20032;-82
2022/12/13 04:41:40;;;;;;;8.27;3.80;;;-1.30;92.40;;;;;;4981673;28;20025;-82
2022/12/13 04:44:08;;;;;;;9.20;4.33;;;-1.30;92.40;;;;;;4997494;28;20084;-82
2022/12/13 04:46:34;;;;;;;8.90;3.97;;;-1.40;92.30;;;;;;5022759;28;20028;-82
2022/12/13 04:49:00;;;;;;;8.48;4.15;;;-1.40;92.30;;;;;;4978366;28;20029;-82
2022/12/13 04:51:26;;;;;;;9.15;3.72;;;-1.40;92.20;;;;;;4984816;28;20029;-82
2022/12/13 04:53:52;;;;;;;9.50;3.60;;;-1.40;92.20;;;;;;5008286;28;20581;-82
2022/12/13 04:56:18;;;;;;;7.55;3.78;;;-1.40;92.10;;;;;;4987225;28;20080;-82
2022/12/13 04:58:44;;;;;;;8.60;4.10;;;-1.40;92.10;;;;;;5013586;28;20295;-82
2022/12/13 05:01:10;;;;;;;7.68;3.92;;;-1.40;92.00;;;;;;5025969;28;21760;-82
2022/12/13 05:03:37;;;;;;;9.55;3.65;;;-1.40;92.00;;;;;;5010790;28;20103;-82
2022/12/13 05:06:08;;;;;;;8.85;3.90;;;-1.50;92.00;;;;;;5001389;28;20041;-82
2022/12/13 05:08:36;;;;;;;9.20;3.87;;;-1.50;92.10;;;;;;4980753;28;20028;-82
2022/12/13 05:11:03;;;;;;;8.98;3.53;;;-1.50;92.10;;;;;;5002464;28;20108;-82
2022/12/13 05:13:28;;;;;;;10.23;3.88;;;-1.50;92.10;;;;;;5022346;28;20032;-82
2022/12/13 05:16:01;;;;;;;8.65;3.28;;;-1.50;92.10;;;;;;5029818;28;20317;-82
2022/12/13 05:18:27;;;;;;;7.20;3.63;;;-1.50;92.00;;;;;;5011289;28;20116;-82
2022/12/13 05:20:53;;;;;;;11.43;4.75;;;-1.50;92.00;;;;;;4985399;28;20029;-82
2022/12/13 05:23:21;;;;;;;7.40;3.60;;;-1.50;92.00;;;;;;4984085;28;20502;-82
2022/12/13 05:25:47;;;;;;;9.57;3.50;;;-1.60;91.90;;;;;;5010952;28;20366;-83
2022/12/13 05:28:13;;;;;;;8.37;3.60;;;-1.60;91.90;;;;;;4976360;28;20013;-83
2022/12/13 05:30:40;;;;;;;8.35;3.58;;;-1.60;91.80;;;;;;5007917;28;20112;-83
2022/12/13 05:33:07;;;;;;;9.57;3.83;;;-1.60;91.90;;;;;;4992789;28;20032;-83
2022/12/13 05:35:33;;;;;;;8.95;3.75;;;-1.60;91.90;;;;;;5016370;28;20033;-82
2022/12/13 05:37:58;;;;;;;8.00;3.40;;;-1.60;91.80;;;;;;4961890;28;20280;-83
2022/12/13 05:40:26;;;;;;;8.90;3.70;;;-1.70;91.70;;;;;;4990876;28;20045;-83
2022/12/13 05:42:52;;;;;;;8.88;3.75;;;-1.60;91.80;;;;;;5017401;28;20243;-82
2022/12/13 05:45:19;;;;;;;8.45;4.05;;;-1.70;91.70;;;;;;5006122;28;20079;-83
2022/12/13 05:47:45;;;;;;;8.53;3.90;;;-1.70;91.70;;;;;;5010101;28;20025;-83
2022/12/13 05:50:12;;;;;;;8.85;3.75;;;-1.70;91.60;;;;;;5006017;28;20049;-83
2022/12/13 05:52:38;;;;;;;9.02;3.97;;;-1.70;91.60;;;;;;4996989;28;20021;-83
2022/12/13 05:55:04;;;;;;;8.17;3.43;;;-1.80;91.60;;;;;;4982391;28;21166;-83
2022/12/13 05:57:30;;;;;;;9.27;3.72;;;-1.80;91.70;;;;;;5001367;28;20144;-83
2022/12/13 05:59:56;;;;;;;9.43;4.18;;;-1.80;91.70;;;;;;4980756;28;20025;-83
2022/12/13 06:02:22;;;;;;;7.23;3.87;;;-1.80;91.70;;;;;;4972290;28;20135;-83
2022/12/13 06:04:48;;;;;;;8.85;3.75;;;-1.80;91.80;;;;;;4996374;28;20533;-83
2022/12/13 06:07:13;;;;;;;7.18;3.40;;;-1.80;91.80;;;;;;4969373;28;20029;-83
2022/12/13 06:09:39;;;;;;;9.73;3.97;;;-1.80;91.80;;;;;;4952840;28;20029;-83
2022/12/13 06:12:05;;;;;;;8.70;3.70;;;-1.80;91.90;;;;;;4985743;28;20680;-83
2022/12/13 06:14:31;;;;;;;8.57;3.75;;;-1.80;91.90;;;;;;4962506;28;20018;-83
2022/12/13 06:16:57;;;;;;;9.43;4.27;;;-1.80;91.90;;;;;;4996135;28;20871;-83
2022/12/13 06:19:24;;;;;;;10.23;3.95;;;-1.80;92.00;;;;;;5004355;28;20386;-83
2022/12/13 06:21:52;;;;;;;9.23;3.85;;;-1.80;92.00;;;;;;4986531;28;20025;-83
2022/12/13 06:24:19;;;;;;;7.57;3.65;;;-1.90;92.00;;;;;;4984996;28;20029;-84
2022/12/13 06:26:45;;;;;;;7.27;4.00;;;-1.80;92.10;;;;;;4974842;28;20421;-84
2022/12/13 06:29:12;;;;;;;10.57;4.60;;;-1.80;92.10;;;;;;4991807;28;20013;-83
2022/12/13 06:31:38;;;;;;;8.35;3.63;;;-1.90;92.10;;;;;;4971294;28;20642;-84
2022/12/13 06:34:04;;;;;;;7.97;4.00;;;-1.80;92.10;;;;;;5000275;28;20051;-84
2022/12/13 06:36:30;;;;;;;9.07;4.00;;;-1.90;92.20;;;;;;4997666;28;20150;-84
2022/12/13 06:38:55;;;;;;;8.80;4.03;;;-1.80;92.20;;;;;;4988156;28;20025;-83
2022/12/13 06:41:21;;;;;;;8.87;4.20;;;-1.90;92.20;;;;;;4937688;28;20906;-84
2022/12/13 06:43:47;;;;;;;7.53;4.05;;;-1.90;92.30;;;;;;5010195;28;20033;-83
2022/12/13 06:46:14;;;;;;;9.73;4.30;;;-1.80;92.20;;;;;;4991708;28;20029;-84
2022/12/13 06:48:40;;;;;;;10.07;4.30;;;-1.90;92.20;;;;;;5007993;28;20371;-84
2022/12/13 06:51:07;;;;;;;9.23;4.30;;;-1.90;92.20;;;;;;5004162;28;20021;-84
2022/12/13 06:53:35;;;;;;;7.72;3.75;;;-1.90;92.20;;;;;;5014184;28;20201;-83
2022/12/13 06:56:12;;;;;;;8.27;3.80;;;-1.90;92.10;;;;;;4966806;28;20022;-84
2022/12/13 06:58:39;;;;;;;8.17;3.63;;;-1.90;92.40;;;;;;4978728;28;20389;-83
2022/12/13 07:01:10;;;;;;;9.20;4.25;;;-1.90;92.30;;;;;;5009192;28;20060;-84
2022/12/13 07:03:37;;;;;;;8.18;3.40;;;-1.90;92.00;;;;;;5033013;28;20029;-84
2022/12/13 07:06:05;;;;;;;8.27;3.88;;;-1.90;92.00;;;;;;4984936;28;20041;-83
2022/12/13 07:08:31;;;;;;;8.82;3.85;;;-1.90;92.00;;;;;;4995741;28;20277;-83
2022/12/13 07:10:57;;;;;;;7.77;3.67;;;-2.00;91.90;;;;;;4969606;28;20124;-83
2022/12/13 07:13:23;;;;;;;9.13;4.22;;;-1.90;91.90;;;;;;4995932;28;20250;-83
2022/12/13 07:15:49;;;;;;;9.77;4.15;;;-2.00;91.80;;;;;;5011670;28;20083;-83
2022/12/13 07:18:16;;;;;;;9.23;4.07;;;-2.00;91.80;;;;;;5013283;28;20637;-83
2022/12/13 07:20:42;;;;;;;9.38;4.10;;;-2.00;91.80;;;;;;5008908;28;20787;-83
2022/12/13 07:23:09;;;;;;;9.50;4.57;;;-2.00;92.20;;;;;;5013562;28;20643;-83
2022/12/13 07:25:34;;;;;;;9.15;4.18;;;-2.00;91.90;;;;;;4986679;28;21624;-84
2022/12/13 07:28:06;;;;;;;8.10;4.40;;;-2.00;91.90;;;;;;4951882;28;20106;-84
2022/12/13 07:30:37;;;;;;;8.93;4.43;;;-2.00;91.90;;;;;;5007926;28;20052;-83
2022/12/13 07:33:04;;;;;;;8.00;4.13;;;-2.10;91.80;;;;;;4996119;28;20025;-84
2022/12/13 07:35:31;;;;;;;9.57;4.72;;;-2.00;91.80;;;;;;5013965;28;20130;-83
2022/12/13 07:37:57;;;;;;;8.70;4.30;;;-2.10;91.80;;;;;;5016965;28;20072;-83
2022/12/13 07:40:24;;;;;;;10.30;4.32;;;-2.10;91.70;;;;;;4995661;28;20833;-84
2022/12/13 07:42:54;;;;;;;9.75;4.57;;;-2.00;91.70;;;;;;4979663;28;20037;-84
2022/12/13 07:45:21;;;;;;;8.82;4.38;;;-2.10;91.70;;;;;;4977875;28;20025;-83
2022/12/13 07:47:47;;;;;;;10.43;4.70;;;-2.10;91.80;;;;;;5004670;28;20049;-83
2022/12/13 07:50:13;;;;;;;10.27;4.77;;;-2.10;91.90;;;;;;4981404;28;20040;-83
2022/12/13 07:52:39;;;;;;;10.23;4.47;;;-2.10;92.00;;;;;;5011314;28;20495;-83
2022/12/13 07:55:06;;;;;;;9.57;5.10;;;-2.10;92.10;;;;;;5015111;28;20021;-83
2022/12/13 07:57:32;;;;;;;10.67;4.47;;;-2.10;92.30;;;;;;4972777;28;20180;-84
2022/12/13 07:59:58;;;;;;;8.93;5.03;;;-2.00;92.40;;;;;;4989324;28;20029;-83
2022/12/13 08:02:23;;;;;;;10.73;5.10;;;-2.00;92.60;;;;;;4998700;28;20236;-83
2022/12/13 08:04:49;;;;;;;10.33;5.10;;;-2.00;92.70;;;;;;5005220;28;20087;-83
2022/12/13 08:07:15;;;;;;;12.13;5.18;;;-1.90;92.80;;;;;;5001815;28;20025;-83
2022/12/13 08:09:41;;;;;;;9.75;4.68;;;-1.90;93.00;;;;;;5016082;28;20528;-83
2022/12/13 08:12:07;;;;;;;8.90;4.60;;;-1.90;93.10;;;;;;5000688;28;20048;-83
2022/12/13 08:14:33;;;;;;;9.63;4.70;;;-1.80;93.30;;;;;;4953338;28;20919;-83
2022/12/13 08:16:59;;;;;;;10.63;5.13;;;-1.70;93.50;;;;;;5023477;28;20066;-83
2022/12/13 08:19:25;;;;;;;10.10;4.75;;;-1.70;93.90;;;;;;5000209;28;20060;-83
2022/12/13 08:21:51;;;;;;;11.03;5.00;;;-1.60;94.30;;;;;;4999288;28;20030;-83
2022/12/13 08:24:18;;;;;;;11.93;5.18;;;-1.50;94.60;;;;;;4994034;28;20105;-84
2022/12/13 08:26:44;;;;;;;11.30;5.57;;;-1.40;94.90;;;;;;4982047;28;20094;-84
2022/12/13 08:29:11;;;;;;;11.53;5.03;;;-1.30;95.30;;;;;;4976702;28;20658;-83
2022/12/13 08:31:37;;;;;;;8.73;4.13;;;-1.10;95.70;;;;;;5004768;28;20444;-83
2022/12/13 08:34:03;;;;;;;12.68;5.90;;;-1.00;95.70;;;;;;5000541;28;20018;-83
2022/12/13 08:36:28;;;;;;;11.07;5.03;;;-1.00;95.60;;;;;;4985161;28;20025;-83
2022/12/13 08:38:55;;;;;;;12.38;6.15;;;-0.90;95.50;;;;;;5030562;28;20200;-84
2022/12/13 08:41:21;;;;;;;11.40;5.28;;;-0.90;95.70;;;;;;4998099;28;20028;-83
2022/12/13 08:43:47;;;;;;;13.97;5.50;;;-0.80;95.40;;;;;;5005395;28;20768;-84
2022/12/13 08:46:13;;;;;;;10.77;5.45;;;-0.70;95.50;;;;;;4985912;28;20383;-83
2022/12/13 08:48:39;;;;;;;11.88;5.55;;;-0.70;95.50;;;;;;5023197;28;20029;-83
2022/12/13 08:51:08;;;;;;;11.35;5.15;;;-0.60;95.40;;;;;;5005494;28;20017;-83
2022/12/13 08:53:33;;;;;;;10.97;5.07;;;-0.60;95.60;;;;;;5021422;28;20493;-83
2022/12/13 08:56:04;;;;;;;12.32;6.22;;;-0.50;95.10;;;;;;5015629;28;20036;-83
2022/12/13 08:58:31;;;;;;;10.95;5.80;;;-0.50;94.80;;;;;;5004438;28;20435;-83
2022/12/13 09:00:57;;;;;;;11.52;5.18;;;-0.50;94.60;;;;;;4993468;28;20254;-84
2022/12/13 09:03:23;;;;;;;10.30;4.93;;;-0.50;94.60;;;;;;5021826;28;20106;-83
2022/12/13 09:05:49;;;;;;;12.07;5.30;;;-0.50;94.70;;;;;;5021434;28;20265;-83
2022/12/13 09:08:15;;;;;;;10.68;5.55;;;-0.50;94.90;;;;;;5017236;28;20024;-83
2022/12/13 09:10:41;;;;;;;11.67;5.30;;;-0.50;95.60;;;;;;5005735;28;20204;-83
2022/12/13 09:13:06;;;;;;;13.05;5.80;;;-0.40;96.20;;;;;;4990702;28;20548;-83
2022/12/13 09:15:32;;;;;;;11.93;5.47;;;-0.30;96.70;;;;;;4969247;28;20537;-84
2022/12/13 09:17:58;;;;;;;12.02;5.72;;;-0.20;97.10;;;;;;4984278;28;20443;-84
2022/12/13 09:20:24;;;;;;;12.75;6.20;;;0.00;98.00;;;;;;5000725;28;20124;-84
2022/12/13 09:22:50;;;;;;;12.25;5.25;;;0.10;98.30;;;;;;4992889;28;20544;-83
2022/12/13 09:25:16;;;;;;;13.53;6.40;;;0.20;98.70;;;;;;4994976;28;20407;-83
2022/12/13 09:27:42;;;;;;;12.15;5.93;;;0.30;98.50;;;;;;5014232;28;20032;-83
2022/12/13 09:30:12;;;;;;;10.90;4.95;;;0.40;98.60;;;;;;4997936;28;20029;-83
2022/12/13 09:32:39;;;;;;;13.53;6.30;;;0.50;99.30;;;;;;4994828;28;20258;-83
2022/12/13 09:35:06;;;;;;;14.88;6.40;;;0.70;99.90;;;;;;4985100;28;20033;-83
2022/12/13 09:37:32;;;;;;;14.35;6.68;;;0.90;99.90;;;;;;4988686;28;20056;-82
2022/12/13 09:39:57;;;;;;;13.27;6.33;;;1.30;99.90;;;;;;5023899;28;20124;-81
2022/12/13 09:42:26;;;;;;;15.73;7.95;;;1.70;99.90;;;;;;5030669;28;20044;-82
2022/12/13 09:44:54;;;;;;;16.55;8.30;;;2.20;99.90;;;;;;5023023;28;20049;-81
2022/12/13 09:47:41;;;;;;;15.93;8.10;;;2.60;99.90;;;;;;4966208;28;20274;-81
2022/12/13 09:50:28;;;;;;;14.40;7.55;;;3.00;99.90;;;;;;5001072;28;20087;-82
2022/12/13 09:52:54;;;;;;;14.13;7.60;;;3.20;99.90;;;;;;5000372;28;20060;-81
2022/12/13 09:55:25;;;;;;;13.00;6.88;;;3.40;99.90;;;;;;5003833;28;20150;-81
2022/12/13 09:57:51;;;;;;;14.55;7.30;;;3.50;99.90;;;;;;5032719;28;20028;-81
2022/12/13 10:00:20;;;;;;;15.27;7.30;;;3.60;99.90;;;;;;5014444;28;20130;-81
2022/12/13 10:02:50;;;;;;;16.48;8.02;;;3.70;99.90;;;;;;4963441;28;20032;-80
2022/12/13 10:05:27;;;;;;;13.88;6.72;;;3.80;99.90;;;;;;4980226;28;20041;-80
2022/12/13 10:07:58;;;;;;;14.63;7.70;;;3.80;99.90;;;;;;4965984;28;20715;-80
2022/12/13 10:10:24;;;;;;;14.68;7.18;;;3.90;99.90;;;;;;5010989;28;20489;-79
2022/12/13 10:13:09;;;;;;;13.43;6.93;;;4.00;99.90;;;;;;5000626;28;20113;-79
2022/12/13 10:15:40;;;;;;;21.88;7.65;;;4.20;99.90;;;;;;5005040;28;20036;-79
2022/12/13 10:18:08;;;;;;;29.55;6.97;;;4.50;99.90;;;;;;4968931;28;20040;-80
2022/12/13 10:20:34;;;;;;;18.95;7.30;;;4.90;99.90;;;;;;5002696;28;20021;-79
2022/12/13 10:23:00;;;;;;;14.48;7.65;;;5.30;99.90;;;;;;4985238;28;20029;-79
2022/12/13 10:25:53;;;;;;;16.13;7.90;;;5.60;99.90;;;;;;5010160;28;20021;-80
2022/12/13 10:28:27;;;;;;;14.07;8.02;;;6.00;99.90;;;;;;5015973;28;20330;-80
2022/12/13 10:30:55;;;;;;;14.77;8.07;;;6.40;99.90;;;;;;5027378;28;20029;-79
2022/12/13 10:33:43;;;;;;;13.67;7.33;;;6.80;99.90;;;;;;4979905;28;20021;-79
2022/12/13 10:36:27;;;;;;;11.73;7.07;;;7.00;99.90;;;;;;4977626;28;20533;-79
2022/12/13 10:38:53;;;;;;;12.93;7.80;;;7.40;99.90;;;;;;5006730;28;20508;-79
2022/12/13 10:41:36;;;;;;;11.50;6.95;;;7.60;99.90;;;;;;5030433;28;20029;-79
2022/12/13 10:44:11;;;;;;;11.32;7.35;;;8.00;99.90;;;;;;4988099;28;20116;-79
2022/12/13 10:46:46;;;;;;;13.20;7.43;;;8.20;99.90;;;;;;4997615;28;20537;-79
2022/12/13 10:49:17;;;;;;;12.55;7.55;;;8.40;99.90;;;;;;5021471;28;20095;-79
2022/12/13 10:51:43;;;;;;;12.25;7.22;;;8.60;99.90;;;;;;4980294;28;21822;-79
2022/12/13 10:54:29;;;;;;;13.68;7.85;;;8.80;99.90;;;;;;4991240;28;20432;-79
2022/12/13 10:56:59;;;;;;;12.77;7.55;;;8.90;99.90;;;;;;5004159;28;20371;-79
2022/12/13 10:59:31;;;;;;;13.03;7.77;;;9.00;99.90;;;;;;5006084;28;20028;-80
2022/12/13 11:01:57;;;;;;;11.88;7.43;;;9.10;99.90;;;;;;5031201;28;20099;-80
2022/12/13 11:04:26;;;;;;;17.33;10.05;;;9.30;99.90;;;;;;5001580;28;20104;-81
2022/12/13 11:06:52;;;;;;;14.93;8.23;;;9.40;99.90;;;;;;4967785;28;20170;-81
2022/12/13 11:09:32;;;;;;;13.13;7.72;;;9.40;99.90;;;;;;5018622;28;20429;-82
2022/12/13 11:12:02;;;;;;;10.87;7.07;;;9.50;99.90;;;;;;5025763;28;20027;-82
2022/12/13 11:14:33;;;;;;;12.68;7.53;;;9.70;99.90;;;;;;4981142;28;20079;-82
2022/12/13 11:17:18;;;;;;;12.80;7.60;;;9.90;99.90;;;;;;5004182;28;20373;-82
2022/12/13 11:20:06;;;;;;;12.70;7.78;;;10.20;99.90;;;;;;4998665;28;20021;-82
2022/12/13 11:22:36;;;;;;;12.85;7.90;;;10.40;99.90;;;;;;4988377;28;20128;-82
2022/12/13 11:25:02;;;;;;;12.23;7.60;;;10.40;99.90;;;;;;5009546;28;20056;-82
2022/12/13 11:27:47;;;;;;;13.43;7.65;;;10.50;99.90;;;;;;5016289;28;20533;-82
2022/12/13 11:30:29;;;;;;;13.15;7.30;;;10.50;99.90;;;;;;4989798;28;20350;-82
2022/12/13 11:33:08;;;;;;;12.80;7.37;;;10.60;99.90;;;;;;4994875;28;20032;-83
2022/12/13 11:36:00;;;;;;;10.90;7.00;;;10.60;99.90;;;;;;5014403;28;20177;-82
2022/12/13 11:38:52;;;;;;;11.40;6.57;;;10.60;99.90;;;;;;4963807;28;20028;-82
2022/12/13 11:41:31;;;;;;;11.35;6.40;;;10.60;97.90;;;;;;4996607;28;21612;-82
2022/12/13 11:44:29;;;;;;;11.88;6.40;;;10.50;98.20;;;;;;4997788;28;20235;-82
2022/12/13 11:46:58;;;;;;;9.40;5.33;;;10.40;98.80;;;;;;4957008;28;20040;-82
2022/12/13 11:49:35;;;;;;;11.65;6.55;;;10.30;99.90;;;;;;5003671;28;20053;-82
2022/12/13 11:52:29;;;;;;;11.88;6.78;;;10.20;98.50;;;;;;4984816;28;20541;-82
2022/12/13 11:55:18;;;;;;;10.88;6.10;;;10.10;97.50;;;;;;4981532;28;20036;-82
2022/12/13 11:58:03;;;;;;;10.65;6.47;;;9.90;97.30;;;;;;5014363;28;20483;-82
2022/12/13 12:00:33;;;;;;;10.93;5.97;;;9.60;96.30;;;;;;4997925;28;20225;-81
2022/12/13 12:03:15;;;;;;;9.73;5.82;;;9.30;97.10;;;;;;4977772;28;20037;-81
2022/12/13 12:05:47;;;;;;;10.05;6.00;;;9.10;96.20;;;;;;4972224;28;20222;-81
2022/12/13 12:08:20;;;;;;;11.48;5.78;;;8.70;96.70;;;;;;5005050;28;20373;-81
2022/12/13 12:10:48;;;;;;;11.88;6.72;;;8.50;96.40;;;;;;4979970;28;20056;-81
2022/12/13 12:13:32;;;;;;;11.83;6.27;;;8.20;97.30;;;;;;5032287;28;20385;-81
2022/12/13 12:16:24;;;;;;;12.02;6.00;;;8.00;95.70;;;;;;5020592;28;20067;-81
2022/12/13 12:18:51;;;;;;;11.98;6.60;;;7.80;96.00;;;;;;4993317;28;20024;-81
2022/12/13 12:21:37;;;;;;;13.00;6.00;;;7.60;97.70;;;;;;5022779;28;20250;-81
2022/12/13 12:24:23;;;;;;;13.07;6.57;;;7.40;96.50;;;;;;4974566;28;20092;-81
2022/12/13 12:27:10;;;;;;;12.93;6.07;;;7.30;97.40;;;;;;4999398;28;20060;-81
2022/12/13 12:30:02;;;;;;;10.80;5.78;;;7.20;97.90;;;;;;5027504;28;20263;-81
2022/12/13 12:32:52;;;;;;;11.50;6.03;;;7.00;96.70;;;;;;4983308;28;20938;-80
2022/12/13 12:35:17;;;;;;;11.30;5.60;;;6.90;97.50;;;;;;4999275;28;20072;-81
2022/12/13 12:37:55;;;;;;;13.10;6.07;;;6.80;99.00;;;;;;5018574;28;20389;-81
2022/12/13 12:40:34;;;;;;;11.43;5.75;;;6.80;98.00;;;;;;4990336;28;20025;-81
2022/12/13 12:43:25;;;;;;;12.50;6.70;;;6.70;98.30;;;;;;5028686;28;20090;-81
2022/12/13 12:46:15;;;;;;;12.15;5.97;;;6.50;97.20;;;;;;5027512;28;20352;-81
2022/12/13 12:49:00;;;;;;;10.27;5.33;;;6.40;98.30;;;;;;4982856;28;20481;-81
2022/12/13 12:52:01;;;;;;;12.00;6.32;;;6.20;97.50;;;;;;5020938;28;20242;-81
2022/12/13 12:55:02;;;;;;;11.23;6.13;;;6.20;97.70;;;;;;4973436;28;20029;-80
2022/12/13 12:57:43;;;;;;;10.85;5.20;;;6.10;98.30;;;;;;5002076;28;20017;-80
2022/12/13 13:00:16;;;;;;;13.50;6.13;;;6.00;98.00;;;;;;5018308;28;20125;-80
2022/12/13 13:02:41;;;;;;;11.90;5.50;;;5.90;99.20;;;;;;5010954;28;20033;-81
2022/12/13 13:05:32;;;;;;;10.68;5.40;;;5.80;99.70;;;;;;5001329;28;20580;-81
2022/12/13 13:08:19;;;;;;;12.48;5.80;;;5.80;98.40;;;;;;5000553;28;20040;-80